sensor_id;sensor_type;location;lat;lon;timestamp;P1;durP1;ratioP1;P2;durP2;ratioP2
17864;SDS011;9058;52.018;4.202;2023-03-31T00:01:35;14.18;;;3.83;;
17864;SDS011;9058;52.018;4.202;2023-03-31T00:04:06;14.15;;;3.50;;
17864;SDS011;9058;52.018;4.202;2023-03-31T00:06:36;16.73;;;3.85;;
17864;SDS011;9058;52.018;4.202;2023-03-31T00:09:03;18.42;;;5.03;;
17864;SDS011;9058;52.018;4.202;2023-03-31T00:11:30;18.55;;;5.28;;
17864;SDS011;9058;52.018;4.202;2023-03-31T00:13:57;13.65;;;4.03;;
17864;SDS011;9058;52.018;4.202;2023-03-31T00:16:25;16.27;;;4.35;;
17864;SDS011;9058;52.018;4.202;2023-03-31T00:18:51;12.25;;;3.83;;
17864;SDS011;9058;52.018;4.202;2023-03-31T00:21:20;16.85;;;5.45;;
17864;SDS011;9058;52.018;4.202;2023-03-31T00:23:51;22.13;;;4.85;;
17864;SDS011;9058;52.018;4.202;2023-03-31T00:26:18;12.70;;;4.00;;
17864;SDS011;9058;52.018;4.202;2023-03-31T00:28:44;15.98;;;3.35;;
17864;SDS011;9058;52.018;4.202;2023-03-31T00:31:10;15.48;;;4.13;;
17864;SDS011;9058;52.018;4.202;2023-03-31T00:33:38;18.85;;;4.60;;
17864;SDS011;9058;52.018;4.202;2023-03-31T00:36:04;14.15;;;4.00;;
17864;SDS011;9058;52.018;4.202;2023-03-31T00:38:32;13.52;;;3.47;;
17864;SDS011;9058;52.018;4.202;2023-03-31T00:41:00;11.73;;;3.72;;
17864;SDS011;9058;52.018;4.202;2023-03-31T00:43:27;7.05;;;3.22;;
17864;SDS011;9058;52.018;4.202;2023-03-31T00:45:55;11.90;;;3.25;;
17864;SDS011;9058;52.018;4.202;2023-03-31T00:48:25;14.05;;;3.75;;
17864;SDS011;9058;52.018;4.202;2023-03-31T00:50:53;10.38;;;3.90;;
17864;SDS011;9058;52.018;4.202;2023-03-31T00:53:22;12.38;;;3.50;;
17864;SDS011;9058;52.018;4.202;2023-03-31T00:55:50;14.60;;;4.05;;
17864;SDS011;9058;52.018;4.202;2023-03-31T00:58:19;10.02;;;3.70;;
17864;SDS011;9058;52.018;4.202;2023-03-31T01:00:46;10.93;;;3.85;;
17864;SDS011;9058;52.018;4.202;2023-03-31T01:03:13;13.35;;;4.03;;
17864;SDS011;9058;52.018;4.202;2023-03-31T01:05:41;11.45;;;3.72;;
17864;SDS011;9058;52.018;4.202;2023-03-31T01:08:09;15.65;;;4.90;;
17864;SDS011;9058;52.018;4.202;2023-03-31T01:10:38;11.50;;;3.85;;
17864;SDS011;9058;52.018;4.202;2023-03-31T01:13:06;13.73;;;3.78;;
17864;SDS011;9058;52.018;4.202;2023-03-31T01:15:34;12.05;;;3.97;;
17864;SDS011;9058;52.018;4.202;2023-03-31T01:18:01;14.10;;;4.65;;
17864;SDS011;9058;52.018;4.202;2023-03-31T01:20:30;13.88;;;4.10;;
17864;SDS011;9058;52.018;4.202;2023-03-31T01:23:21;13.93;;;4.97;;
17864;SDS011;9058;52.018;4.202;2023-03-31T01:25:59;8.55;;;3.95;;
17864;SDS011;9058;52.018;4.202;2023-03-31T01:28:32;15.20;;;4.05;;
17864;SDS011;9058;52.018;4.202;2023-03-31T01:31:16;14.05;;;3.95;;
17864;SDS011;9058;52.018;4.202;2023-03-31T01:33:47;10.50;;;3.47;;
17864;SDS011;9058;52.018;4.202;2023-03-31T01:36:28;14.25;;;4.20;;
17864;SDS011;9058;52.018;4.202;2023-03-31T01:39:02;19.08;;;3.78;;
17864;SDS011;9058;52.018;4.202;2023-03-31T01:41:39;9.13;;;3.22;;
17864;SDS011;9058;52.018;4.202;2023-03-31T01:44:09;10.80;;;3.30;;
17864;SDS011;9058;52.018;4.202;2023-03-31T01:46:40;12.20;;;2.60;;
17864;SDS011;9058;52.018;4.202;2023-03-31T01:49:07;18.13;;;3.53;;
17864;SDS011;9058;52.018;4.202;2023-03-31T01:51:38;20.75;;;3.13;;
17864;SDS011;9058;52.018;4.202;2023-03-31T01:54:10;8.75;;;2.90;;
17864;SDS011;9058;52.018;4.202;2023-03-31T01:56:40;17.42;;;3.67;;
17864;SDS011;9058;52.018;4.202;2023-03-31T01:59:07;12.02;;;2.67;;
17864;SDS011;9058;52.018;4.202;2023-03-31T02:01:36;12.98;;;3.78;;
17864;SDS011;9058;52.018;4.202;2023-03-31T02:04:06;18.02;;;3.80;;
17864;SDS011;9058;52.018;4.202;2023-03-31T02:06:40;16.23;;;4.10;;
17864;SDS011;9058;52.018;4.202;2023-03-31T02:09:09;10.60;;;3.22;;
17864;SDS011;9058;52.018;4.202;2023-03-31T02:11:36;13.13;;;3.30;;
17864;SDS011;9058;52.018;4.202;2023-03-31T02:14:07;15.60;;;4.15;;
17864;SDS011;9058;52.018;4.202;2023-03-31T02:16:35;13.73;;;3.58;;
17864;SDS011;9058;52.018;4.202;2023-03-31T02:19:05;12.57;;;2.92;;
17864;SDS011;9058;52.018;4.202;2023-03-31T02:21:35;15.55;;;2.72;;
17864;SDS011;9058;52.018;4.202;2023-03-31T02:24:03;10.30;;;3.25;;
17864;SDS011;9058;52.018;4.202;2023-03-31T02:26:33;14.45;;;3.30;;
17864;SDS011;9058;52.018;4.202;2023-03-31T02:29:02;12.85;;;3.45;;
17864;SDS011;9058;52.018;4.202;2023-03-31T02:31:31;13.45;;;3.42;;
17864;SDS011;9058;52.018;4.202;2023-03-31T02:34:01;13.63;;;3.03;;
17864;SDS011;9058;52.018;4.202;2023-03-31T02:36:28;14.23;;;3.25;;
17864;SDS011;9058;52.018;4.202;2023-03-31T02:38:56;13.27;;;3.80;;
17864;SDS011;9058;52.018;4.202;2023-03-31T02:41:24;13.80;;;3.55;;
17864;SDS011;9058;52.018;4.202;2023-03-31T02:43:50;13.13;;;3.58;;
17864;SDS011;9058;52.018;4.202;2023-03-31T02:46:18;14.27;;;3.85;;
17864;SDS011;9058;52.018;4.202;2023-03-31T02:48:46;12.43;;;3.42;;
17864;SDS011;9058;52.018;4.202;2023-03-31T02:51:19;12.20;;;4.72;;
17864;SDS011;9058;52.018;4.202;2023-03-31T02:53:55;9.50;;;3.20;;
17864;SDS011;9058;52.018;4.202;2023-03-31T02:56:26;10.23;;;3.00;;
17864;SDS011;9058;52.018;4.202;2023-03-31T02:58:59;8.75;;;2.65;;
17864;SDS011;9058;52.018;4.202;2023-03-31T03:01:33;8.30;;;3.13;;
17864;SDS011;9058;52.018;4.202;2023-03-31T03:04:06;11.18;;;4.03;;
17864;SDS011;9058;52.018;4.202;2023-03-31T03:06:38;11.15;;;2.60;;
17864;SDS011;9058;52.018;4.202;2023-03-31T03:09:10;10.25;;;2.70;;
17864;SDS011;9058;52.018;4.202;2023-03-31T03:11:40;6.43;;;2.22;;
17864;SDS011;9058;52.018;4.202;2023-03-31T03:14:12;7.07;;;1.77;;
17864;SDS011;9058;52.018;4.202;2023-03-31T03:16:42;4.93;;;1.70;;
17864;SDS011;9058;52.018;4.202;2023-03-31T03:19:16;6.80;;;2.08;;
17864;SDS011;9058;52.018;4.202;2023-03-31T03:21:44;7.97;;;2.35;;
17864;SDS011;9058;52.018;4.202;2023-03-31T03:24:11;8.93;;;1.90;;
17864;SDS011;9058;52.018;4.202;2023-03-31T03:26:38;5.32;;;1.90;;
17864;SDS011;9058;52.018;4.202;2023-03-31T03:29:05;7.50;;;1.92;;
17864;SDS011;9058;52.018;4.202;2023-03-31T03:31:31;8.32;;;2.30;;
17864;SDS011;9058;52.018;4.202;2023-03-31T03:33:59;10.48;;;2.28;;
17864;SDS011;9058;52.018;4.202;2023-03-31T03:36:26;6.88;;;2.00;;
17864;SDS011;9058;52.018;4.202;2023-03-31T03:38:53;7.03;;;2.25;;
17864;SDS011;9058;52.018;4.202;2023-03-31T03:41:19;8.20;;;1.60;;
17864;SDS011;9058;52.018;4.202;2023-03-31T03:43:45;10.30;;;1.88;;
17864;SDS011;9058;52.018;4.202;2023-03-31T03:46:12;6.93;;;2.65;;
17864;SDS011;9058;52.018;4.202;2023-03-31T03:48:38;8.90;;;2.30;;
17864;SDS011;9058;52.018;4.202;2023-03-31T03:51:04;7.88;;;2.20;;
17864;SDS011;9058;52.018;4.202;2023-03-31T03:53:34;9.05;;;2.05;;
17864;SDS011;9058;52.018;4.202;2023-03-31T03:56:00;8.40;;;2.30;;
17864;SDS011;9058;52.018;4.202;2023-03-31T03:58:28;9.45;;;2.08;;
17864;SDS011;9058;52.018;4.202;2023-03-31T04:00:54;8.98;;;2.70;;
17864;SDS011;9058;52.018;4.202;2023-03-31T04:03:21;12.77;;;3.17;;
17864;SDS011;9058;52.018;4.202;2023-03-31T04:05:47;8.48;;;2.50;;
17864;SDS011;9058;52.018;4.202;2023-03-31T04:08:15;13.52;;;4.05;;
17864;SDS011;9058;52.018;4.202;2023-03-31T04:10:44;11.52;;;3.42;;
17864;SDS011;9058;52.018;4.202;2023-03-31T04:13:11;12.77;;;4.32;;
17864;SDS011;9058;52.018;4.202;2023-03-31T04:15:38;12.23;;;3.60;;
17864;SDS011;9058;52.018;4.202;2023-03-31T04:18:04;13.15;;;4.05;;
17864;SDS011;9058;52.018;4.202;2023-03-31T04:20:30;9.90;;;4.18;;
17864;SDS011;9058;52.018;4.202;2023-03-31T04:22:56;13.15;;;4.03;;
17864;SDS011;9058;52.018;4.202;2023-03-31T04:25:24;8.73;;;4.70;;
17864;SDS011;9058;52.018;4.202;2023-03-31T04:27:56;12.98;;;5.72;;
17864;SDS011;9058;52.018;4.202;2023-03-31T04:30:22;12.05;;;4.97;;
17864;SDS011;9058;52.018;4.202;2023-03-31T04:32:55;9.57;;;3.78;;
17864;SDS011;9058;52.018;4.202;2023-03-31T04:35:22;6.40;;;2.95;;
17864;SDS011;9058;52.018;4.202;2023-03-31T04:37:48;8.82;;;3.30;;
17864;SDS011;9058;52.018;4.202;2023-03-31T04:40:16;9.73;;;3.13;;
17864;SDS011;9058;52.018;4.202;2023-03-31T04:42:43;7.80;;;2.63;;
17864;SDS011;9058;52.018;4.202;2023-03-31T04:45:12;8.65;;;3.22;;
17864;SDS011;9058;52.018;4.202;2023-03-31T04:47:38;10.60;;;3.55;;
17864;SDS011;9058;52.018;4.202;2023-03-31T04:50:06;8.52;;;2.33;;
17864;SDS011;9058;52.018;4.202;2023-03-31T04:52:33;7.72;;;2.72;;
17864;SDS011;9058;52.018;4.202;2023-03-31T04:55:00;5.68;;;2.10;;
17864;SDS011;9058;52.018;4.202;2023-03-31T04:57:26;6.25;;;1.80;;
17864;SDS011;9058;52.018;4.202;2023-03-31T04:59:53;6.00;;;2.00;;
17864;SDS011;9058;52.018;4.202;2023-03-31T05:02:21;8.70;;;2.35;;
17864;SDS011;9058;52.018;4.202;2023-03-31T05:04:48;7.32;;;2.03;;
17864;SDS011;9058;52.018;4.202;2023-03-31T05:07:15;6.47;;;2.13;;
17864;SDS011;9058;52.018;4.202;2023-03-31T05:09:41;6.63;;;2.20;;
17864;SDS011;9058;52.018;4.202;2023-03-31T05:12:07;6.40;;;1.85;;
17864;SDS011;9058;52.018;4.202;2023-03-31T05:14:35;6.60;;;1.92;;
17864;SDS011;9058;52.018;4.202;2023-03-31T05:17:01;6.18;;;1.63;;
17864;SDS011;9058;52.018;4.202;2023-03-31T05:19:30;4.72;;;1.55;;
17864;SDS011;9058;52.018;4.202;2023-03-31T05:21:56;6.10;;;1.83;;
17864;SDS011;9058;52.018;4.202;2023-03-31T05:24:22;5.57;;;1.42;;
17864;SDS011;9058;52.018;4.202;2023-03-31T05:26:52;6.25;;;1.40;;
17864;SDS011;9058;52.018;4.202;2023-03-31T05:29:18;3.97;;;1.67;;
17864;SDS011;9058;52.018;4.202;2023-03-31T05:31:45;2.88;;;1.17;;
17864;SDS011;9058;52.018;4.202;2023-03-31T05:34:11;6.55;;;1.80;;
17864;SDS011;9058;52.018;4.202;2023-03-31T05:36:40;3.65;;;1.65;;
17864;SDS011;9058;52.018;4.202;2023-03-31T05:39:07;2.90;;;1.60;;
17864;SDS011;9058;52.018;4.202;2023-03-31T05:41:34;4.22;;;1.50;;
17864;SDS011;9058;52.018;4.202;2023-03-31T05:44:00;3.90;;;1.60;;
17864;SDS011;9058;52.018;4.202;2023-03-31T05:46:28;4.32;;;1.27;;
17864;SDS011;9058;52.018;4.202;2023-03-31T05:48:54;2.38;;;1.33;;
17864;SDS011;9058;52.018;4.202;2023-03-31T05:51:22;2.30;;;1.13;;
17864;SDS011;9058;52.018;4.202;2023-03-31T05:53:51;3.22;;;1.25;;
17864;SDS011;9058;52.018;4.202;2023-03-31T05:56:17;3.90;;;1.10;;
17864;SDS011;9058;52.018;4.202;2023-03-31T05:58:44;4.43;;;1.38;;
17864;SDS011;9058;52.018;4.202;2023-03-31T06:01:11;4.30;;;1.40;;
17864;SDS011;9058;52.018;4.202;2023-03-31T06:03:38;1.65;;;1.00;;
17864;SDS011;9058;52.018;4.202;2023-03-31T06:06:06;5.32;;;1.50;;
17864;SDS011;9058;52.018;4.202;2023-03-31T06:08:36;3.83;;;1.20;;
17864;SDS011;9058;52.018;4.202;2023-03-31T06:11:05;4.95;;;1.33;;
17864;SDS011;9058;52.018;4.202;2023-03-31T06:13:31;4.28;;;1.40;;
17864;SDS011;9058;52.018;4.202;2023-03-31T06:15:58;5.47;;;1.50;;
17864;SDS011;9058;52.018;4.202;2023-03-31T06:18:25;5.97;;;1.27;;
17864;SDS011;9058;52.018;4.202;2023-03-31T06:20:52;6.43;;;1.65;;
17864;SDS011;9058;52.018;4.202;2023-03-31T06:23:19;5.80;;;1.65;;
17864;SDS011;9058;52.018;4.202;2023-03-31T06:25:45;6.90;;;1.65;;
17864;SDS011;9058;52.018;4.202;2023-03-31T06:28:13;4.75;;;1.50;;
17864;SDS011;9058;52.018;4.202;2023-03-31T06:30:39;4.93;;;1.70;;
17864;SDS011;9058;52.018;4.202;2023-03-31T06:33:06;6.85;;;1.85;;
17864;SDS011;9058;52.018;4.202;2023-03-31T06:35:36;5.18;;;1.42;;
17864;SDS011;9058;52.018;4.202;2023-03-31T06:38:02;7.03;;;2.22;;
17864;SDS011;9058;52.018;4.202;2023-03-31T06:40:29;4.10;;;1.38;;
17864;SDS011;9058;52.018;4.202;2023-03-31T06:42:55;8.00;;;2.00;;
17864;SDS011;9058;52.018;4.202;2023-03-31T06:45:23;5.53;;;1.50;;
17864;SDS011;9058;52.018;4.202;2023-03-31T06:47:49;5.75;;;2.10;;
17864;SDS011;9058;52.018;4.202;2023-03-31T06:50:16;8.25;;;2.53;;
17864;SDS011;9058;52.018;4.202;2023-03-31T06:52:42;7.28;;;2.53;;
17864;SDS011;9058;52.018;4.202;2023-03-31T06:55:09;12.18;;;2.90;;
17864;SDS011;9058;52.018;4.202;2023-03-31T06:57:37;4.80;;;2.38;;
17864;SDS011;9058;52.018;4.202;2023-03-31T07:00:03;6.68;;;2.30;;
17864;SDS011;9058;52.018;4.202;2023-03-31T07:02:33;9.75;;;3.17;;
17864;SDS011;9058;52.018;4.202;2023-03-31T07:05:00;9.55;;;2.97;;
17864;SDS011;9058;52.018;4.202;2023-03-31T07:07:29;6.25;;;2.50;;
17864;SDS011;9058;52.018;4.202;2023-03-31T07:09:57;8.40;;;2.83;;
17864;SDS011;9058;52.018;4.202;2023-03-31T07:12:23;12.50;;;2.95;;
17864;SDS011;9058;52.018;4.202;2023-03-31T07:14:50;9.38;;;3.08;;
17864;SDS011;9058;52.018;4.202;2023-03-31T07:17:17;8.85;;;2.90;;
17864;SDS011;9058;52.018;4.202;2023-03-31T07:19:45;7.40;;;2.38;;
17864;SDS011;9058;52.018;4.202;2023-03-31T07:22:12;11.38;;;3.35;;
17864;SDS011;9058;52.018;4.202;2023-03-31T07:24:38;8.23;;;3.03;;
17864;SDS011;9058;52.018;4.202;2023-03-31T07:27:05;9.73;;;2.70;;
17864;SDS011;9058;52.018;4.202;2023-03-31T07:29:31;11.60;;;3.20;;
17864;SDS011;9058;52.018;4.202;2023-03-31T07:31:58;12.13;;;3.80;;
17864;SDS011;9058;52.018;4.202;2023-03-31T07:34:25;9.15;;;3.65;;
17864;SDS011;9058;52.018;4.202;2023-03-31T07:36:54;10.68;;;3.40;;
17864;SDS011;9058;52.018;4.202;2023-03-31T07:39:21;8.32;;;2.65;;
17864;SDS011;9058;52.018;4.202;2023-03-31T07:41:47;8.73;;;2.60;;
17864;SDS011;9058;52.018;4.202;2023-03-31T07:44:13;8.68;;;3.15;;
17864;SDS011;9058;52.018;4.202;2023-03-31T07:46:42;10.57;;;2.45;;
17864;SDS011;9058;52.018;4.202;2023-03-31T07:49:09;9.48;;;2.65;;
17864;SDS011;9058;52.018;4.202;2023-03-31T07:51:39;12.70;;;4.15;;
17864;SDS011;9058;52.018;4.202;2023-03-31T07:54:08;11.45;;;3.55;;
17864;SDS011;9058;52.018;4.202;2023-03-31T07:56:34;9.98;;;2.40;;
17864;SDS011;9058;52.018;4.202;2023-03-31T07:59:01;11.02;;;2.85;;
17864;SDS011;9058;52.018;4.202;2023-03-31T08:01:28;12.52;;;2.50;;
17864;SDS011;9058;52.018;4.202;2023-03-31T08:03:55;7.45;;;2.80;;
17864;SDS011;9058;52.018;4.202;2023-03-31T08:06:23;9.95;;;2.50;;
17864;SDS011;9058;52.018;4.202;2023-03-31T08:08:50;9.32;;;3.00;;
17864;SDS011;9058;52.018;4.202;2023-03-31T08:11:19;17.27;;;3.30;;
17864;SDS011;9058;52.018;4.202;2023-03-31T08:13:46;11.45;;;2.83;;
17864;SDS011;9058;52.018;4.202;2023-03-31T08:16:12;15.70;;;3.50;;
17864;SDS011;9058;52.018;4.202;2023-03-31T08:18:39;9.40;;;3.50;;
17864;SDS011;9058;52.018;4.202;2023-03-31T08:21:06;8.65;;;2.92;;
17864;SDS011;9058;52.018;4.202;2023-03-31T08:23:33;11.43;;;3.90;;
17864;SDS011;9058;52.018;4.202;2023-03-31T08:26:07;14.73;;;4.80;;
17864;SDS011;9058;52.018;4.202;2023-03-31T08:28:34;12.88;;;3.65;;
17864;SDS011;9058;52.018;4.202;2023-03-31T08:31:02;15.95;;;4.32;;
17864;SDS011;9058;52.018;4.202;2023-03-31T08:33:30;16.70;;;4.90;;
17864;SDS011;9058;52.018;4.202;2023-03-31T08:36:00;15.27;;;4.15;;
17864;SDS011;9058;52.018;4.202;2023-03-31T08:38:26;15.35;;;4.03;;
17864;SDS011;9058;52.018;4.202;2023-03-31T08:40:57;20.27;;;4.32;;
17864;SDS011;9058;52.018;4.202;2023-03-31T08:43:25;15.63;;;4.38;;
17864;SDS011;9058;52.018;4.202;2023-03-31T08:45:54;14.45;;;4.28;;
17864;SDS011;9058;52.018;4.202;2023-03-31T08:48:20;16.73;;;3.85;;
17864;SDS011;9058;52.018;4.202;2023-03-31T08:50:51;18.17;;;4.32;;
17864;SDS011;9058;52.018;4.202;2023-03-31T08:53:24;18.90;;;4.10;;
17864;SDS011;9058;52.018;4.202;2023-03-31T08:55:52;14.88;;;3.67;;
17864;SDS011;9058;52.018;4.202;2023-03-31T08:58:25;14.00;;;3.22;;
17864;SDS011;9058;52.018;4.202;2023-03-31T09:00:56;13.50;;;4.13;;
17864;SDS011;9058;52.018;4.202;2023-03-31T09:03:27;14.27;;;3.60;;
17864;SDS011;9058;52.018;4.202;2023-03-31T09:05:57;13.07;;;3.13;;
17864;SDS011;9058;52.018;4.202;2023-03-31T09:08:34;17.30;;;3.30;;
17864;SDS011;9058;52.018;4.202;2023-03-31T09:11:03;12.07;;;3.65;;
17864;SDS011;9058;52.018;4.202;2023-03-31T09:13:37;11.98;;;2.50;;
17864;SDS011;9058;52.018;4.202;2023-03-31T09:16:12;11.98;;;3.15;;
17864;SDS011;9058;52.018;4.202;2023-03-31T09:18:38;8.00;;;2.28;;
17864;SDS011;9058;52.018;4.202;2023-03-31T09:21:11;12.25;;;2.78;;
17864;SDS011;9058;52.018;4.202;2023-03-31T09:23:39;14.77;;;3.53;;
17864;SDS011;9058;52.018;4.202;2023-03-31T09:26:09;15.07;;;3.42;;
17864;SDS011;9058;52.018;4.202;2023-03-31T09:28:38;14.80;;;3.35;;
17864;SDS011;9058;52.018;4.202;2023-03-31T09:31:07;14.48;;;3.55;;
17864;SDS011;9058;52.018;4.202;2023-03-31T09:33:37;17.65;;;3.47;;
17864;SDS011;9058;52.018;4.202;2023-03-31T09:36:07;12.93;;;3.58;;
17864;SDS011;9058;52.018;4.202;2023-03-31T09:38:38;15.75;;;3.70;;
17864;SDS011;9058;52.018;4.202;2023-03-31T09:41:04;15.40;;;4.40;;
17864;SDS011;9058;52.018;4.202;2023-03-31T09:43:31;15.60;;;4.18;;
17864;SDS011;9058;52.018;4.202;2023-03-31T09:45:59;21.38;;;4.28;;
17864;SDS011;9058;52.018;4.202;2023-03-31T09:48:26;14.65;;;4.18;;
17864;SDS011;9058;52.018;4.202;2023-03-31T09:50:56;15.80;;;4.20;;
17864;SDS011;9058;52.018;4.202;2023-03-31T09:53:24;17.02;;;3.88;;
17864;SDS011;9058;52.018;4.202;2023-03-31T09:55:54;20.67;;;4.53;;
17864;SDS011;9058;52.018;4.202;2023-03-31T09:58:21;16.98;;;3.83;;
17864;SDS011;9058;52.018;4.202;2023-03-31T10:00:55;17.15;;;3.53;;
17864;SDS011;9058;52.018;4.202;2023-03-31T10:03:22;19.67;;;3.60;;
17864;SDS011;9058;52.018;4.202;2023-03-31T10:05:53;11.30;;;3.28;;
17864;SDS011;9058;52.018;4.202;2023-03-31T10:08:23;11.13;;;3.13;;
17864;SDS011;9058;52.018;4.202;2023-03-31T10:10:50;8.10;;;2.67;;
17864;SDS011;9058;52.018;4.202;2023-03-31T10:13:18;12.32;;;3.53;;
17864;SDS011;9058;52.018;4.202;2023-03-31T10:15:45;10.60;;;2.63;;
17864;SDS011;9058;52.018;4.202;2023-03-31T10:18:12;11.48;;;2.85;;
17864;SDS011;9058;52.018;4.202;2023-03-31T10:20:42;9.07;;;2.42;;
17864;SDS011;9058;52.018;4.202;2023-03-31T10:23:14;14.52;;;2.90;;
17864;SDS011;9058;52.018;4.202;2023-03-31T10:25:42;13.40;;;2.60;;
17864;SDS011;9058;52.018;4.202;2023-03-31T10:28:10;10.15;;;2.22;;
17864;SDS011;9058;52.018;4.202;2023-03-31T10:30:37;11.68;;;2.80;;
17864;SDS011;9058;52.018;4.202;2023-03-31T10:33:06;12.13;;;2.80;;
17864;SDS011;9058;52.018;4.202;2023-03-31T10:35:33;8.32;;;2.35;;
17864;SDS011;9058;52.018;4.202;2023-03-31T10:38:01;10.70;;;3.13;;
17864;SDS011;9058;52.018;4.202;2023-03-31T10:40:29;9.32;;;2.30;;
17864;SDS011;9058;52.018;4.202;2023-03-31T10:43:01;8.48;;;2.38;;
17864;SDS011;9058;52.018;4.202;2023-03-31T10:45:28;9.18;;;2.28;;
17864;SDS011;9058;52.018;4.202;2023-03-31T10:47:56;8.10;;;2.58;;
17864;SDS011;9058;52.018;4.202;2023-03-31T10:50:26;8.32;;;2.35;;
17864;SDS011;9058;52.018;4.202;2023-03-31T10:52:59;9.07;;;2.42;;
17864;SDS011;9058;52.018;4.202;2023-03-31T10:55:27;9.27;;;2.25;;
17864;SDS011;9058;52.018;4.202;2023-03-31T10:57:57;11.43;;;2.90;;
17864;SDS011;9058;52.018;4.202;2023-03-31T11:00:28;13.98;;;3.25;;
17864;SDS011;9058;52.018;4.202;2023-03-31T11:03:00;14.32;;;2.83;;
17864;SDS011;9058;52.018;4.202;2023-03-31T11:05:30;7.72;;;2.67;;
17864;SDS011;9058;52.018;4.202;2023-03-31T11:08:00;10.13;;;2.70;;
17864;SDS011;9058;52.018;4.202;2023-03-31T11:10:32;11.38;;;2.90;;
17864;SDS011;9058;52.018;4.202;2023-03-31T11:13:01;12.90;;;3.40;;
17864;SDS011;9058;52.018;4.202;2023-03-31T11:15:33;8.57;;;3.10;;
17864;SDS011;9058;52.018;4.202;2023-03-31T11:18:05;9.60;;;2.67;;
17864;SDS011;9058;52.018;4.202;2023-03-31T11:20:38;9.02;;;2.22;;
17864;SDS011;9058;52.018;4.202;2023-03-31T11:23:09;7.63;;;2.22;;
17864;SDS011;9058;52.018;4.202;2023-03-31T11:25:39;6.68;;;1.80;;
17864;SDS011;9058;52.018;4.202;2023-03-31T11:28:16;7.97;;;1.70;;
17864;SDS011;9058;52.018;4.202;2023-03-31T11:30:47;7.88;;;2.00;;
17864;SDS011;9058;52.018;4.202;2023-03-31T11:33:20;5.43;;;2.35;;
17864;SDS011;9058;52.018;4.202;2023-03-31T11:35:52;9.98;;;2.08;;
17864;SDS011;9058;52.018;4.202;2023-03-31T11:38:31;5.13;;;1.33;;
17864;SDS011;9058;52.018;4.202;2023-03-31T11:41:01;4.75;;;1.50;;
17864;SDS011;9058;52.018;4.202;2023-03-31T11:43:30;7.25;;;1.83;;
17864;SDS011;9058;52.018;4.202;2023-03-31T11:45:59;5.90;;;1.67;;
17864;SDS011;9058;52.018;4.202;2023-03-31T11:48:30;5.43;;;1.50;;
17864;SDS011;9058;52.018;4.202;2023-03-31T11:50:57;4.28;;;1.30;;
17864;SDS011;9058;52.018;4.202;2023-03-31T11:53:24;7.22;;;1.73;;
17864;SDS011;9058;52.018;4.202;2023-03-31T11:55:53;9.35;;;1.40;;
17864;SDS011;9058;52.018;4.202;2023-03-31T11:58:21;5.97;;;1.55;;
17864;SDS011;9058;52.018;4.202;2023-03-31T12:00:50;6.60;;;2.17;;
17864;SDS011;9058;52.018;4.202;2023-03-31T12:03:21;4.00;;;1.95;;
17864;SDS011;9058;52.018;4.202;2023-03-31T12:05:50;6.15;;;1.65;;
17864;SDS011;9058;52.018;4.202;2023-03-31T12:08:18;7.30;;;2.40;;
17864;SDS011;9058;52.018;4.202;2023-03-31T12:10:49;6.57;;;2.45;;
17864;SDS011;9058;52.018;4.202;2023-03-31T12:13:33;8.57;;;2.10;;
17864;SDS011;9058;52.018;4.202;2023-03-31T12:16:03;6.90;;;2.15;;
17864;SDS011;9058;52.018;4.202;2023-03-31T12:18:35;6.07;;;1.98;;
17864;SDS011;9058;52.018;4.202;2023-03-31T12:21:06;11.10;;;2.88;;
17864;SDS011;9058;52.018;4.202;2023-03-31T12:23:33;8.60;;;2.70;;
17864;SDS011;9058;52.018;4.202;2023-03-31T12:26:01;9.43;;;3.35;;
17864;SDS011;9058;52.018;4.202;2023-03-31T12:28:31;8.25;;;2.92;;
17864;SDS011;9058;52.018;4.202;2023-03-31T12:30:58;9.40;;;3.10;;
17864;SDS011;9058;52.018;4.202;2023-03-31T12:33:25;12.27;;;4.40;;
17864;SDS011;9058;52.018;4.202;2023-03-31T12:36:00;6.30;;;2.83;;
17864;SDS011;9058;52.018;4.202;2023-03-31T12:38:32;9.85;;;3.65;;
17864;SDS011;9058;52.018;4.202;2023-03-31T12:41:02;7.55;;;2.47;;
17864;SDS011;9058;52.018;4.202;2023-03-31T12:43:41;4.63;;;2.00;;
17864;SDS011;9058;52.018;4.202;2023-03-31T12:46:16;9.57;;;2.13;;
17864;SDS011;9058;52.018;4.202;2023-03-31T12:48:49;6.78;;;2.15;;
17864;SDS011;9058;52.018;4.202;2023-03-31T12:51:22;4.40;;;2.03;;
17864;SDS011;9058;52.018;4.202;2023-03-31T12:53:57;7.32;;;1.98;;
17864;SDS011;9058;52.018;4.202;2023-03-31T12:56:26;7.32;;;2.13;;
17864;SDS011;9058;52.018;4.202;2023-03-31T12:58:52;10.82;;;2.28;;
17864;SDS011;9058;52.018;4.202;2023-03-31T13:01:19;7.75;;;1.67;;
17864;SDS011;9058;52.018;4.202;2023-03-31T13:03:47;5.97;;;2.28;;
17864;SDS011;9058;52.018;4.202;2023-03-31T13:09:01;6.95;;;2.00;;
17864;SDS011;9058;52.018;4.202;2023-03-31T13:11:34;5.35;;;1.67;;
17864;SDS011;9058;52.018;4.202;2023-03-31T13:14:02;3.75;;;1.58;;
17864;SDS011;9058;52.018;4.202;2023-03-31T13:16:30;3.13;;;1.00;;
17864;SDS011;9058;52.018;4.202;2023-03-31T13:18:57;3.72;;;1.30;;
17864;SDS011;9058;52.018;4.202;2023-03-31T13:21:24;3.25;;;0.95;;
17864;SDS011;9058;52.018;4.202;2023-03-31T13:23:51;4.32;;;1.30;;
17864;SDS011;9058;52.018;4.202;2023-03-31T13:26:39;4.20;;;1.42;;
17864;SDS011;9058;52.018;4.202;2023-03-31T13:29:10;3.10;;;1.27;;
17864;SDS011;9058;52.018;4.202;2023-03-31T13:34:22;3.22;;;1.10;;
17864;SDS011;9058;52.018;4.202;2023-03-31T13:36:54;5.57;;;1.45;;
17864;SDS011;9058;52.018;4.202;2023-03-31T13:39:33;5.38;;;1.70;;
17864;SDS011;9058;52.018;4.202;2023-03-31T13:42:07;4.40;;;1.20;;
17864;SDS011;9058;52.018;4.202;2023-03-31T13:44:43;11.85;;;1.83;;
17864;SDS011;9058;52.018;4.202;2023-03-31T13:47:26;5.85;;;1.60;;
17864;SDS011;9058;52.018;4.202;2023-03-31T13:50:02;5.88;;;1.48;;
17864;SDS011;9058;52.018;4.202;2023-03-31T13:52:38;11.25;;;1.80;;
17864;SDS011;9058;52.018;4.202;2023-03-31T13:55:14;7.63;;;1.73;;
17864;SDS011;9058;52.018;4.202;2023-03-31T13:57:48;7.38;;;1.75;;
17864;SDS011;9058;52.018;4.202;2023-03-31T14:00:20;7.88;;;1.70;;
17864;SDS011;9058;52.018;4.202;2023-03-31T14:02:54;4.93;;;2.03;;
17864;SDS011;9058;52.018;4.202;2023-03-31T14:05:23;6.70;;;2.40;;
17864;SDS011;9058;52.018;4.202;2023-03-31T14:07:52;6.28;;;1.80;;
17864;SDS011;9058;52.018;4.202;2023-03-31T14:10:21;9.13;;;2.35;;
17864;SDS011;9058;52.018;4.202;2023-03-31T14:12:49;5.55;;;2.20;;
17864;SDS011;9058;52.018;4.202;2023-03-31T14:15:17;6.18;;;2.10;;
17864;SDS011;9058;52.018;4.202;2023-03-31T14:17:44;7.95;;;2.40;;
17864;SDS011;9058;52.018;4.202;2023-03-31T14:20:20;5.80;;;1.17;;
17864;SDS011;9058;52.018;4.202;2023-03-31T14:22:49;8.77;;;2.30;;
17864;SDS011;9058;52.018;4.202;2023-03-31T14:25:21;5.53;;;1.65;;
17864;SDS011;9058;52.018;4.202;2023-03-31T14:27:54;7.07;;;2.22;;
17864;SDS011;9058;52.018;4.202;2023-03-31T14:30:26;9.95;;;2.60;;
17864;SDS011;9058;52.018;4.202;2023-03-31T14:32:55;7.05;;;1.88;;
17864;SDS011;9058;52.018;4.202;2023-03-31T14:35:27;7.70;;;1.80;;
17864;SDS011;9058;52.018;4.202;2023-03-31T14:37:56;8.35;;;1.67;;
17864;SDS011;9058;52.018;4.202;2023-03-31T14:40:22;7.68;;;2.33;;
17864;SDS011;9058;52.018;4.202;2023-03-31T14:42:49;8.05;;;1.80;;
17864;SDS011;9058;52.018;4.202;2023-03-31T14:45:20;9.77;;;2.38;;
17864;SDS011;9058;52.018;4.202;2023-03-31T14:47:53;6.28;;;1.63;;
17864;SDS011;9058;52.018;4.202;2023-03-31T14:50:19;10.95;;;2.15;;
17864;SDS011;9058;52.018;4.202;2023-03-31T14:52:46;9.85;;;2.00;;
17864;SDS011;9058;52.018;4.202;2023-03-31T14:55:13;8.57;;;1.80;;
17864;SDS011;9058;52.018;4.202;2023-03-31T14:57:39;7.97;;;2.15;;
17864;SDS011;9058;52.018;4.202;2023-03-31T15:00:07;7.65;;;1.90;;
17864;SDS011;9058;52.018;4.202;2023-03-31T15:02:36;6.80;;;1.98;;
17864;SDS011;9058;52.018;4.202;2023-03-31T15:05:03;4.45;;;1.85;;
17864;SDS011;9058;52.018;4.202;2023-03-31T15:07:31;7.30;;;2.05;;
17864;SDS011;9058;52.018;4.202;2023-03-31T15:09:57;7.35;;;2.00;;
17864;SDS011;9058;52.018;4.202;2023-03-31T15:12:24;9.95;;;1.85;;